Time;durP1;ratioP1;P1;durP2;ratioP2;P2;SDS_P1;SDS_P2;PMS_P1;PMS_P2;Temp;Humidity;BMP_temperature;BMP_pressure;BME280_temperature;BME280_humidity;BME280_pressure;Samples;Min_cycle;Max_cycle;Signal;HPM_P1;HPM_P2
2022/04/20 00:01:23;;;;;;;16.50;7.13;;;;;;;3.73;100.00;101816.78;5033846;28;20044;-78
2022/04/20 00:03:49;;;;;;;16.42;7.38;;;;;;;3.61;100.00;101819.06;5034221;28;20044;-78
2022/04/20 00:06:15;;;;;;;17.48;9.40;;;;;;;3.67;100.00;101812.72;5044130;28;20044;-78
2022/04/20 00:08:41;;;;;;;14.93;8.00;;;;;;;3.66;100.00;101821.44;5046384;28;20046;-78
2022/04/20 00:11:07;;;;;;;15.63;8.98;;;;;;;3.65;100.00;101830.97;5034291;28;20060;-76
2022/04/20 00:13:35;;;;;;;16.02;9.10;;;;;;;3.73;100.00;101821.97;5034599;28;20022;-78
2022/04/20 00:16:01;;;;;;;19.52;10.23;;;;;;;3.67;100.00;101813.59;5033525;28;20047;-78
2022/04/20 00:18:27;;;;;;;22.02;10.68;;;;;;;3.62;100.00;101817.31;5019205;28;20034;-78
2022/04/20 00:20:52;;;;;;;16.52;10.63;;;;;;;3.69;100.00;101818.69;5012607;28;20041;-77
2022/04/20 00:23:18;;;;;;;21.95;11.02;;;;;;;3.59;100.00;101818.28;5024082;28;20498;-77
2022/04/20 00:25:44;;;;;;;20.55;12.02;;;;;;;3.66;100.00;101821.44;5054152;28;20047;-79
2022/04/20 00:28:10;;;;;;;18.95;11.70;;;;;;;3.54;100.00;101820.25;5049539;28;20037;-78
2022/04/20 00:30:35;;;;;;;20.15;11.48;;;;;;;3.47;100.00;101824.09;5047528;28;20697;-78
2022/04/20 00:33:02;;;;;;;20.55;12.52;;;;;;;3.52;100.00;101824.69;5051453;28;20036;-79
2022/04/20 00:35:28;;;;;;;22.10;13.00;;;;;;;3.51;100.00;101818.66;5015254;28;20099;-76
2022/04/20 00:37:54;;;;;;;24.90;12.82;;;;;;;3.39;100.00;101821.00;5042007;28;20426;-79
2022/04/20 00:40:20;;;;;;;22.88;12.55;;;;;;;3.31;100.00;101813.59;5026053;28;20116;-77
2022/04/20 00:42:47;;;;;;;23.20;12.75;;;;;;;3.15;100.00;101810.06;5034322;28;20086;-77
2022/04/20 00:45:14;;;;;;;23.67;14.43;;;;;;;3.28;100.00;101824.13;5036888;28;20120;-77
2022/04/20 00:47:44;;;;;;;24.45;13.55;;;;;;;3.18;100.00;101818.53;5032788;28;20025;-77
2022/04/20 00:50:14;;;;;;;20.75;13.35;;;;;;;3.09;100.00;101813.78;5027291;28;20095;-77
2022/04/20 00:52:41;;;;;;;24.02;14.10;;;;;;;3.07;100.00;101815.59;5017635;28;20026;-77
2022/04/20 00:55:09;;;;;;;27.05;14.75;;;;;;;3.04;100.00;101813.16;5019035;28;20103;-79
2022/04/20 00:57:35;;;;;;;23.70;15.55;;;;;;;3.22;100.00;101821.81;5032830;28;20089;-77
2022/04/20 01:00:03;;;;;;;32.25;16.52;;;;;;;3.26;100.00;101825.97;5030247;28;20136;-76
2022/04/20 01:02:32;;;;;;;28.00;15.68;;;;;;;3.20;100.00;101815.88;5036940;28;20042;-78
2022/04/20 01:04:58;;;;;;;29.23;15.98;;;;;;;3.16;100.00;101806.56;5052854;28;20055;-78
2022/04/20 01:08:00;;;;;;;28.05;15.52;;;;;;;3.02;100.00;101805.44;5036329;28;20043;-78
2022/04/20 01:10:45;;;;;;;26.85;16.95;;;;;;;3.02;100.00;101812.41;5041428;28;20037;-76
2022/04/20 01:13:31;;;;;;;25.70;16.45;;;;;;;2.98;100.00;101810.88;5032535;28;20053;-77
2022/04/20 01:16:22;;;;;;;27.45;17.15;;;;;;;2.90;100.00;101816.38;5022014;28;20044;-77
2022/04/20 01:19:09;;;;;;;33.60;17.48;;;;;;;2.89;100.00;101807.75;5047769;28;20642;-76
2022/04/20 01:21:44;;;;;;;29.85;17.98;;;;;;;2.83;100.00;101792.50;5027365;28;20127;-77
2022/04/20 01:24:28;;;;;;;26.40;16.88;;;;;;;2.82;100.00;101800.34;5051568;28;20595;-78
2022/04/20 01:27:12;;;;;;;32.55;19.17;;;;;;;2.84;100.00;101798.53;5041233;28;20044;-77
2022/04/20 01:29:56;;;;;;;30.77;18.10;;;;;;;2.83;100.00;101800.28;5034943;28;20668;-77
2022/04/20 01:32:40;;;;;;;28.13;18.75;;;;;;;2.69;100.00;101784.50;5034425;28;20461;-76
2022/04/20 01:35:08;;;;;;;32.97;18.63;;;;;;;2.80;100.00;101794.41;5041538;28;20174;-78
2022/04/20 01:37:34;;;;;;;31.15;18.77;;;;;;;2.87;100.00;101794.03;5033575;28;20033;-77
2022/04/20 01:40:00;;;;;;;31.70;18.60;;;;;;;2.88;100.00;101800.91;5038812;28;20041;-77
2022/04/20 01:42:26;;;;;;;35.25;19.52;;;;;;;2.89;100.00;101793.97;5033248;28;20048;-77
2022/04/20 01:44:56;;;;;;;33.70;20.33;;;;;;;3.06;100.00;101794.03;5016749;28;20142;-78
2022/04/20 01:47:41;;;;;;;33.35;19.85;;;;;;;3.04;100.00;101787.25;5045374;28;20044;-76
2022/04/20 01:50:22;;;;;;;36.15;19.63;;;;;;;3.11;100.00;101792.06;5032326;28;20037;-76
2022/04/20 01:53:02;;;;;;;32.33;19.45;;;;;;;3.09;100.00;101793.88;5032843;28;20562;-79
2022/04/20 01:55:49;;;;;;;33.08;19.00;;;;;;;2.97;100.00;101793.63;5040276;28;20033;-79
2022/04/20 01:58:52;;;;;;;33.33;18.83;;;;;;;2.87;100.00;101783.69;5028814;28;20036;-77
2022/04/20 02:04:09;;;;;;;41.42;20.65;;;;;;;3.08;100.00;101788.78;5032661;28;20109;-78
2022/04/20 02:06:37;;;;;;;35.50;20.60;;;;;;;3.04;100.00;101780.28;5055012;28;20044;-77
2022/04/20 02:09:09;;;;;;;36.40;20.40;;;;;;;3.16;100.00;101785.81;5073519;28;20036;-77
2022/04/20 02:11:44;;;;;;;36.28;19.58;;;;;;;3.19;100.00;101783.09;5074450;28;20062;-78
2022/04/20 02:14:19;;;;;;;29.05;18.40;;;;;;;3.08;100.00;101775.81;5071744;28;20036;-78
2022/04/20 02:16:52;;;;;;;34.40;19.95;;;;;;;3.09;100.00;101777.50;5089821;28;20048;-77
2022/04/20 02:19:36;;;;;;;29.83;17.27;;;;;;;3.15;100.00;101784.97;5068777;28;20105;-77
2022/04/20 02:22:14;;;;;;;29.17;17.38;;;;;;;3.16;100.00;101786.63;5075186;28;20513;-78
2022/04/20 02:24:39;;;;;;;28.30;17.38;;;;;;;3.22;100.00;101786.38;5078628;28;20031;-76
2022/04/20 02:27:08;;;;;;;28.20;16.52;;;;;;;3.18;100.00;101783.97;5088788;28;20047;-77
2022/04/20 02:29:34;;;;;;;28.77;16.55;;;;;;;3.22;100.00;101791.56;5060474;28;20035;-77
2022/04/20 02:32:00;;;;;;;27.58;16.63;;;;;;;3.21;100.00;101783.84;5067307;28;20036;-77
2022/04/20 02:34:25;;;;;;;26.58;16.05;;;;;;;3.23;100.00;101794.97;5057259;28;20043;-77
2022/04/20 02:36:52;;;;;;;30.52;15.52;;;;;;;3.22;100.00;101795.88;5072621;28;20055;-77
2022/04/20 02:39:21;;;;;;;23.80;15.40;;;;;;;3.13;100.00;101797.19;5055107;28;20559;-77
2022/04/20 02:41:47;;;;;;;28.27;15.52;;;;;;;3.12;100.00;101800.66;5070260;28;20030;-77
2022/04/20 02:44:14;;;;;;;24.75;15.00;;;;;;;3.01;100.00;101797.75;5088353;28;20032;-77
2022/04/20 02:46:41;;;;;;;24.63;14.52;;;;;;;2.92;100.00;101792.09;5090264;28;20063;-77
2022/04/20 02:49:07;;;;;;;29.08;14.55;;;;;;;2.75;100.00;101788.56;5071868;28;20109;-78
2022/04/20 02:51:32;;;;;;;24.10;14.93;;;;;;;2.63;100.00;101797.75;5090052;28;20071;-77
2022/04/20 02:53:59;;;;;;;27.38;15.00;;;;;;;2.51;100.00;101799.16;5072361;28;20051;-77
2022/04/20 02:56:24;;;;;;;21.52;14.13;;;;;;;2.50;100.00;101800.03;5047512;28;20055;-77
2022/04/20 02:58:50;;;;;;;24.67;15.05;;;;;;;2.34;100.00;101789.53;5084743;28;20040;-77
2022/04/20 03:01:17;;;;;;;25.85;16.02;;;;;;;2.31;100.00;101793.09;5070133;28;20043;-77
2022/04/20 03:03:44;;;;;;;30.88;16.27;;;;;;;2.37;100.00;101804.94;5089167;28;20035;-77
2022/04/20 03:06:19;;;;;;;28.33;16.15;;;;;;;2.33;100.00;101800.78;5070356;28;20505;-77
2022/04/20 03:08:47;;;;;;;27.15;15.95;;;;;;;2.32;100.00;101791.38;5056449;28;20047;-78
2022/04/20 03:11:14;;;;;;;26.75;15.50;;;;;;;2.33;100.00;101798.19;5081298;28;20123;-77
2022/04/20 03:13:44;;;;;;;22.20;14.63;;;;;;;2.29;100.00;101783.72;5068563;28;20125;-78
2022/04/20 03:16:10;;;;;;;27.05;15.35;;;;;;;2.40;100.00;101783.25;5069490;28;20048;-76
2022/04/20 03:18:36;;;;;;;22.70;14.85;;;;;;;2.33;100.00;101780.06;5060157;28;20024;-78
2022/04/20 03:21:10;;;;;;;28.95;14.45;;;;;;;2.34;100.00;101789.53;5077703;28;20123;-78
2022/04/20 03:23:35;;;;;;;25.52;14.40;;;;;;;2.29;100.00;101784.56;5071114;28;20077;-80
2022/04/20 03:26:06;;;;;;;27.67;14.73;;;;;;;2.35;100.00;101786.03;5086165;28;20103;-78
2022/04/20 03:28:54;;;;;;;25.63;14.27;;;;;;;2.31;100.00;101774.13;5081799;28;20036;-77
2022/04/20 03:31:20;;;;;;;22.10;14.13;;;;;;;2.28;100.00;101780.28;5089612;28;20046;-78
2022/04/20 03:33:46;;;;;;;21.40;13.52;;;;;;;2.28;100.00;101784.59;5088059;28;20036;-76
2022/04/20 03:36:11;;;;;;;23.05;13.30;;;;;;;2.20;100.00;101786.72;5061885;28;20036;-78
2022/04/20 03:38:37;;;;;;;25.23;14.57;;;;;;;2.17;100.00;101786.81;5079248;28;20058;-78
2022/04/20 03:41:04;;;;;;;23.38;13.85;;;;;;;2.28;100.00;101789.78;5052963;28;20711;-78
2022/04/20 03:43:30;;;;;;;23.67;13.48;;;;;;;2.30;100.00;101786.25;5067850;28;20038;-78
2022/04/20 03:45:56;;;;;;;24.75;13.75;;;;;;;2.26;100.00;101797.66;5088350;28;20191;-78
2022/04/20 03:48:22;;;;;;;22.15;12.68;;;;;;;2.18;100.00;101791.94;5093703;28;20497;-77
2022/04/20 03:50:48;;;;;;;23.67;13.02;;;;;;;2.16;100.00;101795.50;5090070;28;20028;-78
2022/04/20 03:53:14;;;;;;;21.20;12.50;;;;;;;2.17;100.00;101792.00;5085916;28;20878;-78
2022/04/20 03:55:41;;;;;;;24.05;12.77;;;;;;;2.17;100.00;101792.00;5070677;28;20482;-77
2022/04/20 03:58:06;;;;;;;26.33;13.80;;;;;;;2.26;100.00;101797.66;5073642;28;20086;-78
2022/04/20 04:00:33;;;;;;;22.33;13.00;;;;;;;2.20;100.00;101792.72;5073663;28;20694;-77
2022/04/20 04:02:59;;;;;;;21.15;12.25;;;;;;;2.20;100.00;101789.28;5073653;28;20042;-76
2022/04/20 04:05:29;;;;;;;24.13;11.93;;;;;;;2.12;100.00;101790.47;5086711;28;20063;-78
2022/04/20 04:08:05;;;;;;;24.10;12.18;;;;;;;2.09;100.00;101793.19;5092621;28;20330;-77
2022/04/20 04:10:33;;;;;;;18.83;12.15;;;;;;;2.12;100.00;101807.75;5077012;28;20547;-77
2022/04/20 04:12:59;;;;;;;23.38;11.68;;;;;;;2.10;100.00;101802.63;5090580;28;20336;-76
2022/04/20 04:15:26;;;;;;;24.25;12.10;;;;;;;2.03;100.00;101802.97;5075338;28;20036;-78
2022/04/20 04:17:58;;;;;;;21.58;12.30;;;;;;;1.99;100.00;101801.41;5076223;28;20043;-78
2022/04/20 04:20:31;;;;;;;21.70;11.43;;;;;;;2.02;100.00;101807.31;5090049;28;20027;-78
2022/04/20 04:22:57;;;;;;;19.10;10.88;;;;;;;2.08;100.00;101796.69;5091983;28;20036;-78
2022/04/20 04:25:29;;;;;;;26.75;11.45;;;;;;;2.07;100.00;101792.44;5058801;28;20532;-79
2022/04/20 04:27:55;;;;;;;17.70;11.07;;;;;;;2.11;100.00;101799.16;5057377;28;20136;-79
2022/04/20 04:30:23;;;;;;;30.10;11.93;;;;;;;2.24;100.00;101802.06;5089595;28;20036;-77
2022/04/20 04:32:55;;;;;;;24.23;11.80;;;;;;;2.37;100.00;101798.91;5068256;28;20051;-78
2022/04/20 04:35:21;;;;;;;20.60;11.25;;;;;;;2.45;100.00;101795.09;5072375;28;20045;-77
2022/04/20 04:37:49;;;;;;;18.48;10.80;;;;;;;2.65;100.00;101794.16;5074356;28;20028;-78
2022/04/20 04:40:18;;;;;;;20.88;10.05;;;;;;;2.74;100.00;101795.50;5072232;28;20035;-77
2022/04/20 04:42:45;;;;;;;15.93;10.02;;;;;;;2.84;100.00;101790.75;5074415;28;20072;-77
2022/04/20 04:50:46;;;;;;;16.20;9.10;;;;;;;3.30;100.00;101793.78;5083926;28;20037;-77
2022/04/20 04:53:12;;;;;;;19.42;9.10;;;;;;;3.38;100.00;101804.63;5064633;28;20055;-77
2022/04/20 04:55:37;;;;;;;15.13;8.43;;;;;;;3.50;100.00;101798.00;5089439;28;20044;-77
2022/04/20 04:58:03;;;;;;;17.92;9.63;;;;;;;3.65;100.00;101791.22;5072781;28;20056;-77
2022/04/20 05:00:29;;;;;;;16.05;9.13;;;;;;;3.79;100.00;101809.53;5072545;28;20113;-78
2022/04/20 05:03:16;;;;;;;18.83;9.45;;;;;;;3.79;100.00;101806.13;5072989;28;20044;-78
2022/04/20 05:05:43;;;;;;;18.13;9.60;;;;;;;3.82;100.00;101809.38;5075334;28;20040;-79
2022/04/20 05:08:10;;;;;;;19.00;8.85;;;;;;;3.97;100.00;101812.13;5070762;28;20039;-78
2022/04/20 05:10:36;;;;;;;14.88;7.90;;;;;;;4.05;100.00;101812.56;5093311;28;20321;-77
2022/04/20 05:13:05;;;;;;;13.80;8.38;;;;;;;4.16;100.00;101810.25;5059691;28;20525;-79
2022/04/20 05:15:31;;;;;;;15.68;8.50;;;;;;;4.32;100.00;101807.72;5056979;28;20089;-78
2022/04/20 05:17:57;;;;;;;14.98;8.38;;;;;;;4.47;100.00;101816.47;5057981;28;20130;-79
2022/04/20 05:20:22;;;;;;;11.35;7.40;;;;;;;4.59;100.00;101810.63;5081287;28;20093;-78
2022/04/20 05:22:49;;;;;;;16.30;7.70;;;;;;;4.70;100.00;101817.03;5092007;28;20020;-76
2022/04/20 05:25:16;;;;;;;12.30;7.03;;;;;;;4.84;100.00;101815.34;5088556;28;20044;-78
2022/04/20 05:27:42;;;;;;;20.27;7.18;;;;;;;4.88;100.00;101792.63;5076622;28;20028;-78
2022/04/20 05:30:15;;;;;;;18.38;6.70;;;;;;;5.17;100.00;101814.41;5073039;28;20059;-78
2022/04/20 05:32:43;;;;;;;22.73;6.60;;;;;;;5.26;100.00;101818.28;5065920;28;20032;-77
2022/04/20 05:35:16;;;;;;;14.45;6.75;;;;;;;5.45;100.00;101818.91;5070803;28;20028;-78
2022/04/20 05:43:21;;;;;;;11.70;5.63;;;;;;;5.92;100.00;101837.13;5080391;28;20050;-77
2022/04/20 05:45:49;;;;;;;10.52;5.28;;;;;;;6.06;100.00;101844.13;5076377;28;20032;-77
2022/04/20 05:48:22;;;;;;;6.95;4.78;;;;;;;6.04;99.13;101839.00;5073972;28;20497;-76
2022/04/20 05:50:48;;;;;;;8.50;4.57;;;;;;;6.10;99.76;101846.47;5075113;28;20643;-78
2022/04/20 05:53:16;;;;;;;7.35;4.63;;;;;;;6.12;98.55;101846.38;5056506;28;20492;-78
2022/04/20 05:55:42;;;;;;;8.18;4.72;;;;;;;6.27;99.31;101844.63;5074127;28;20028;-77
2022/04/20 05:58:08;;;;;;;6.55;4.72;;;;;;;6.27;97.44;101829.81;5088446;28;20493;-77
2022/04/20 06:00:34;;;;;;;8.43;4.18;;;;;;;6.27;96.82;101840.25;5071497;28;20035;-78
2022/04/20 06:03:19;;;;;;;9.70;4.95;;;;;;;6.31;97.79;101844.38;5085882;28;20118;-79
2022/04/20 06:05:46;;;;;;;9.10;4.65;;;;;;;6.40;96.92;101837.75;5069133;28;20067;-79
2022/04/20 06:08:32;;;;;;;8.85;4.00;;;;;;;6.56;95.68;101838.50;5076535;28;20098;-77
2022/04/20 06:11:11;;;;;;;10.15;4.25;;;;;;;6.64;93.93;101848.47;5061156;28;20044;-77
2022/04/20 06:13:38;;;;;;;11.30;4.63;;;;;;;6.55;92.91;101828.16;5095364;28;20040;-78
2022/04/20 06:16:22;;;;;;;6.13;4.00;;;;;;;6.63;93.17;101834.59;5071093;28;20062;-76
2022/04/20 06:18:58;;;;;;;7.93;4.30;;;;;;;6.60;92.82;101829.56;5089410;28;20378;-79
2022/04/20 06:21:32;;;;;;;12.20;4.00;;;;;;;6.59;93.05;101825.28;5087179;28;20152;-77
2022/04/20 06:24:10;;;;;;;6.88;4.03;;;;;;;6.59;93.95;101830.50;5070654;28;20039;-76
2022/04/20 06:27:05;;;;;;;8.30;4.03;;;;;;;6.59;93.23;101834.88;5078118;28;20049;-76
2022/04/20 06:29:51;;;;;;;7.43;3.83;;;;;;;6.66;93.29;101835.34;5095492;28;20061;-78
2022/04/20 06:32:37;;;;;;;7.43;4.13;;;;;;;6.53;93.81;101835.25;5092897;28;20032;-76
2022/04/20 06:35:21;;;;;;;6.85;3.78;;;;;;;6.59;94.24;101837.47;5089073;28;20035;-79
2022/04/20 06:38:03;;;;;;;6.72;4.00;;;;;;;6.73;92.83;101821.00;5087216;28;20036;-76
2022/04/20 06:40:54;;;;;;;7.35;3.67;;;;;;;6.78;91.83;101825.00;5098231;28;20066;-80
2022/04/20 06:43:31;;;;;;;8.55;3.75;;;;;;;7.04;91.23;101825.13;5076074;28;20032;-79
2022/04/20 06:46:28;;;;;;;5.70;3.47;;;;;;;7.20;88.70;101825.00;5030811;28;20041;-80
2022/04/20 06:49:16;;;;;;;9.10;3.60;;;;;;;7.20;89.16;101830.22;5070020;28;20054;-77
2022/04/20 07:00:25;;;;;;;7.47;3.67;;;;;;;8.09;83.32;101826.97;5062961;28;20064;-78
2022/04/20 07:03:06;;;;;;;8.23;3.50;;;;;;;8.05;81.50;101825.50;5080239;28;20054;-79
2022/04/20 07:05:50;;;;;;;8.15;3.42;;;;;;;7.95;82.10;101825.28;5079766;28;20044;-79
2022/04/20 07:08:37;;;;;;;6.10;3.03;;;;;;;7.86;81.79;101818.06;5067988;28;20042;-80
2022/04/20 07:11:16;;;;;;;6.80;2.90;;;;;;;8.17;81.35;101823.84;5062663;28;20242;-78
2022/04/20 07:13:46;;;;;;;8.07;3.15;;;;;;;8.21;79.86;101827.06;5054923;28;20070;-79
2022/04/20 07:16:11;;;;;;;4.90;3.15;;;;;;;8.23;79.93;101823.44;5069258;28;20039;-79
2022/04/20 07:18:40;;;;;;;5.97;2.60;;;;;;;8.36;78.00;101826.03;5074784;28;20093;-78
2022/04/20 07:21:25;;;;;;;6.15;3.08;;;;;;;8.33;79.35;101824.47;5090178;28;20520;-81
2022/04/20 07:24:09;;;;;;;6.45;3.17;;;;;;;8.64;79.20;101834.63;5090256;28;20044;-81
2022/04/20 07:26:46;;;;;;;7.22;2.83;;;;;;;8.90;79.89;101838.84;5089661;28;20036;-79
2022/04/20 07:29:25;;;;;;;7.93;2.92;;;;;;;9.12;76.37;101840.78;5087847;28;20047;-80
2022/04/20 07:32:11;;;;;;;7.72;3.25;;;;;;;8.90;76.19;101841.47;5064355;28;20394;-80
2022/04/20 07:34:55;;;;;;;7.22;2.78;;;;;;;9.14;78.79;101840.66;5088012;28;20078;-78
2022/04/20 07:37:58;;;;;;;;;;;;;;;9.42;76.66;101844.75;5088868;28;20122;-76
2022/04/20 07:40:42;;;;;;;8.70;3.17;;;;;;;9.55;74.77;101849.94;5074069;28;19989;-78
2022/04/20 07:43:23;;;;;;;9.68;3.08;;;;;;;9.22;74.32;101847.97;5091823;28;20035;-79
2022/04/20 07:46:05;;;;;;;5.07;2.35;;;;;;;9.53;75.28;101850.03;5071737;28;20067;-79
2022/04/20 07:48:48;;;;;;;6.28;2.88;;;;;;;9.37;72.95;101844.22;5078336;28;20039;-80
2022/04/20 07:51:43;;;;;;;6.13;2.70;;;;;;;9.52;73.16;101858.00;5068921;28;20055;-82
2022/04/20 07:54:37;;;;;;;6.85;2.38;;;;;;;9.83;74.01;101845.25;5074499;28;20089;-80
2022/04/20 07:57:21;;;;;;;5.88;2.65;;;;;;;10.10;70.90;101848.41;5082903;28;20079;-78
2022/04/20 08:00:15;;;;;;;7.05;2.40;;;;;;;10.03;71.31;101847.19;5076064;28;20054;-80
2022/04/20 08:03:12;;;;;;;6.93;2.22;;;;;;;10.17;68.91;101842.69;5090197;28;20414;-79
2022/04/20 08:05:39;;;;;;;4.32;2.00;;;;;;;10.41;67.36;101853.13;5045781;28;20032;-79
2022/04/20 08:08:06;;;;;;;3.97;1.98;;;;;;;10.74;66.38;101849.69;5079754;28;20042;-79
2022/04/20 08:10:31;;;;;;;5.07;2.33;;;;;;;10.85;64.76;101851.44;5075087;28;20024;-81
2022/04/20 08:12:57;;;;;;;5.50;2.20;;;;;;;10.87;64.21;101847.75;5069037;28;20590;-79
2022/04/20 08:15:26;;;;;;;4.28;2.10;;;;;;;10.70;61.69;101843.84;5069598;28;20561;-79
2022/04/20 08:17:55;;;;;;;5.22;1.90;;;;;;;10.90;63.20;101852.75;5069386;28;20071;-79
2022/04/20 08:20:39;;;;;;;3.50;2.10;;;;;;;11.13;60.87;101846.63;5082443;28;20028;-79
2022/04/20 08:23:05;;;;;;;5.15;1.50;;;;;;;10.98;61.46;101848.69;5055017;28;20210;-79
2022/04/20 08:25:30;;;;;;;2.97;1.45;;;;;;;11.30;63.32;101844.31;5068991;28;20044;-78
2022/04/20 08:27:56;;;;;;;2.85;1.70;;;;;;;11.37;62.12;101855.16;5056410;28;20050;-78
2022/04/20 08:30:22;;;;;;;2.72;1.80;;;;;;;11.18;61.32;101842.66;5052934;28;20032;-78
2022/04/20 08:32:47;;;;;;;1.73;1.48;;;;;;;11.38;62.62;101835.81;5088576;28;20031;-79
2022/04/20 08:35:13;;;;;;;3.20;1.70;;;;;;;11.40;61.32;101838.31;5055765;28;20040;-79
2022/04/20 08:37:39;;;;;;;2.35;1.50;;;;;;;11.50;61.48;101841.84;5072288;28;20039;-80
2022/04/20 08:40:05;;;;;;;5.90;1.80;;;;;;;11.61;58.83;101841.81;5069957;28;20028;-79
2022/04/20 08:42:34;;;;;;;8.25;1.75;;;;;;;11.56;59.93;101846.59;5076965;28;20035;-80
2022/04/20 08:45:04;;;;;;;4.88;1.23;;;;;;;11.69;57.32;101835.91;5074851;28;20044;-79
2022/04/20 08:47:34;;;;;;;3.55;2.13;;;;;;;11.51;58.71;101840.91;5049397;28;20047;-80
2022/04/20 08:50:01;;;;;;;6.32;1.73;;;;;;;11.07;57.61;101837.44;5075337;28;20046;-79
2022/04/20 08:52:37;;;;;;;2.72;1.70;;;;;;;11.41;59.66;101842.59;5056750;28;20160;-79
2022/04/20 08:55:08;;;;;;;4.18;1.70;;;;;;;11.75;57.78;101843.28;5082011;28;20465;-79
2022/04/20 08:57:37;;;;;;;3.55;1.55;;;;;;;11.68;57.98;101837.72;5071524;28;20122;-79
2022/04/20 09:00:05;;;;;;;5.10;1.48;;;;;;;11.51;56.69;101843.53;5057730;28;20143;-78
2022/04/20 09:02:31;;;;;;;4.47;1.60;;;;;;;11.68;57.00;101845.59;5086079;28;20095;-79
2022/04/20 09:04:57;;;;;;;3.33;1.40;;;;;;;11.82;56.12;101843.63;5088268;28;20130;-80
2022/04/20 09:07:25;;;;;;;3.40;2.00;;;;;;;11.83;58.76;101845.31;5074006;28;20035;-78
2022/04/20 09:09:50;;;;;;;4.70;1.50;;;;;;;12.02;57.85;101828.84;5101276;28;20036;-78
2022/04/20 09:12:22;;;;;;;5.13;1.83;;;;;;;12.02;57.08;101826.22;5072971;28;20509;-78
2022/04/20 09:14:51;;;;;;;3.20;1.63;;;;;;;11.94;59.54;101842.66;5079904;28;20033;-76
2022/04/20 09:17:21;;;;;;;2.03;1.45;;;;;;;12.30;58.04;101840.50;5058836;28;20111;-78
2022/04/20 09:19:55;;;;;;;4.13;1.73;;;;;;;12.06;57.22;101840.78;5099003;28;20506;-79
2022/04/20 09:22:29;;;;;;;3.38;1.63;;;;;;;12.24;60.33;101833.97;5058211;28;20060;-78
2022/04/20 09:25:11;;;;;;;4.93;1.73;;;;;;;12.20;58.73;101831.69;5071876;28;20040;-79
2022/04/20 09:27:39;;;;;;;3.77;1.93;;;;;;;12.52;57.92;101836.84;5073545;28;20554;-79
2022/04/20 09:30:10;;;;;;;4.05;1.73;;;;;;;12.49;55.82;101833.63;5100309;28;20036;-78
2022/04/20 09:32:40;;;;;;;6.53;1.73;;;;;;;12.44;55.83;101831.41;5074850;28;20724;-78
2022/04/20 09:35:16;;;;;;;2.85;1.70;;;;;;;12.56;56.51;101818.97;5070098;28;20040;-78
2022/04/20 09:37:45;;;;;;;4.20;1.50;;;;;;;12.83;56.75;101834.19;5085113;28;20031;-79
2022/04/20 09:40:36;;;;;;;5.28;1.83;;;;;;;12.57;56.37;101821.47;5075542;28;20044;-79
2022/04/20 09:43:22;;;;;;;5.07;1.40;;;;;;;13.09;56.09;101816.09;5063339;28;20781;-77
2022/04/20 09:46:03;;;;;;;2.28;1.20;;;;;;;13.27;53.94;101825.94;5064787;28;20126;-80
2022/04/20 09:51:16;;;;;;;3.92;1.27;;;;;;;13.16;51.57;101814.53;5092223;28;20168;-79
2022/04/20 09:53:42;;;;;;;3.08;1.45;;;;;;;13.05;51.63;101818.16;5089651;28;20161;-78
2022/04/20 09:56:19;;;;;;;2.25;1.52;;;;;;;13.14;51.56;101807.75;5087362;28;20034;-78
2022/04/20 09:58:46;;;;;;;3.70;1.20;;;;;;;13.13;52.71;101811.34;5092547;28;20035;-80
2022/04/20 10:01:31;;;;;;;5.22;1.70;;;;;;;13.42;54.69;101817.50;5088524;28;20043;-78
2022/04/20 10:03:58;;;;;;;4.50;1.52;;;;;;;13.61;53.53;101805.28;5056189;28;20040;-79
2022/04/20 10:06:24;;;;;;;2.60;1.30;;;;;;;13.57;53.06;101815.28;5072995;28;20443;-78
2022/04/20 10:08:50;;;;;;;3.25;1.25;;;;;;;13.75;52.28;101811.91;5075152;28;20141;-79
2022/04/20 10:11:16;;;;;;;4.85;1.52;;;;;;;13.47;52.00;101803.06;5055242;28;20043;-77
2022/04/20 10:13:43;;;;;;;2.85;1.50;;;;;;;13.71;51.88;101811.41;5074378;28;20790;-78
2022/04/20 10:16:12;;;;;;;2.90;1.40;;;;;;;13.86;54.11;101808.28;5087928;28;20120;-79
2022/04/20 10:18:44;;;;;;;3.20;1.20;;;;;;;13.58;52.47;101805.56;5073136;28;20024;-79
2022/04/20 10:21:14;;;;;;;2.47;1.40;;;;;;;13.91;53.30;101790.25;5089329;28;20409;-78
2022/04/20 10:23:49;;;;;;;5.03;1.38;;;;;;;13.78;51.00;101799.28;5085633;28;20512;-79
2022/04/20 10:26:17;;;;;;;2.08;1.20;;;;;;;14.18;52.76;101800.88;5088072;28;20028;-79
2022/04/20 10:29:01;;;;;;;3.38;1.30;;;;;;;14.47;50.58;101792.00;5075557;28;20044;-77
2022/04/20 10:31:46;;;;;;;3.85;1.60;;;;;;;13.97;53.71;101789.66;5071803;28;20028;-79
2022/04/20 10:34:16;;;;;;;3.97;1.90;;;;;;;14.19;52.38;101788.50;5074123;28;20079;-80
2022/04/20 10:37:01;;;;;;;1.75;1.20;;;;;;;13.88;50.53;101786.09;5077771;28;20447;-80
2022/04/20 10:39:39;;;;;;;2.30;1.20;;;;;;;14.49;50.73;101781.28;5074279;28;20048;-79
2022/04/20 10:42:15;;;;;;;3.97;1.40;;;;;;;14.06;52.40;101791.44;5070528;28;20131;-77
2022/04/20 10:44:54;;;;;;;2.47;1.25;;;;;;;14.54;50.56;101787.78;5088683;28;20032;-76
2022/04/20 10:47:22;;;;;;;4.15;1.30;;;;;;;14.61;48.95;101772.19;5090026;28;20032;-79
2022/04/20 10:49:52;;;;;;;3.38;1.42;;;;;;;14.54;50.98;101777.22;5091243;28;20608;-77
2022/04/20 10:52:29;;;;;;;3.25;0.95;;;;;;;14.37;51.03;101776.19;5080629;28;20040;-78
2022/04/20 10:54:56;;;;;;;3.22;1.30;;;;;;;14.74;50.01;101772.69;5079141;28;20041;-79
2022/04/20 10:57:36;;;;;;;3.25;1.52;;;;;;;14.86;49.33;101777.75;5076301;28;20039;-78
2022/04/20 11:00:17;;;;;;;5.85;1.20;;;;;;;14.84;50.92;101764.69;5071150;28;20587;-78
2022/04/20 11:02:52;;;;;;;4.30;1.30;;;;;;;14.99;50.85;101773.78;5069999;28;20044;-79
2022/04/20 11:05:22;;;;;;;1.35;1.25;;;;;;;14.76;49.58;101772.53;5079154;28;20123;-79
2022/04/20 11:08:07;;;;;;;2.45;1.50;;;;;;;14.72;51.66;101774.63;5049142;28;20119;-79
2022/04/20 11:10:34;;;;;;;6.35;1.50;;;;;;;14.66;51.30;101777.06;5079576;28;20752;-78
2022/04/20 11:19:12;;;;;;;5.25;1.55;;;;;;;15.30;50.52;101768.09;5067834;28;20037;-78
2022/04/20 11:21:55;;;;;;;3.05;1.80;;;;;;;15.79;50.86;101762.38;5088498;28;20127;-78
2022/04/20 11:24:28;;;;;;;3.92;1.90;;;;;;;15.02;50.55;101769.16;5077031;28;20057;-79
2022/04/20 11:26:55;;;;;;;5.38;1.58;;;;;;;14.98;52.34;101764.19;5098854;28;20043;-77
2022/04/20 11:29:28;;;;;;;4.63;1.40;;;;;;;15.04;51.80;101762.75;5066643;28;20059;-79
2022/04/20 11:32:10;;;;;;;3.58;1.90;;;;;;;15.26;53.12;101755.34;5068842;28;20547;-78
2022/04/20 11:35:04;;;;;;;4.13;1.33;;;;;;;15.88;50.74;101742.06;5077987;28;20659;-80
2022/04/20 11:37:29;;;;;;;2.22;1.58;;;;;;;15.77;50.55;101748.47;5078752;28;20181;-79
2022/04/20 11:39:56;;;;;;;2.95;1.40;;;;;;;15.78;50.12;101747.47;5057943;28;20122;-78
2022/04/20 11:42:22;;;;;;;5.47;1.90;;;;;;;15.22;50.62;101754.81;5078460;28;20040;-78
2022/04/20 11:44:47;;;;;;;3.05;1.30;;;;;;;15.06;54.29;101747.56;5068619;28;20037;-78
2022/04/20 11:47:22;;;;;;;2.60;1.42;;;;;;;14.49;53.04;101746.97;5102014;28;20037;-79
2022/04/20 11:49:49;;;;;;;5.97;1.80;;;;;;;14.80;54.29;101750.13;5099716;28;20042;-79
2022/04/20 11:52:21;;;;;;;2.20;1.45;;;;;;;14.78;53.09;101742.34;5098468;28;20036;-78
2022/04/20 11:55:05;;;;;;;2.33;1.23;;;;;;;14.67;52.59;101726.72;5079646;28;20066;-78
2022/04/20 11:57:30;;;;;;;2.33;1.50;;;;;;;14.88;52.31;101738.81;5079232;28;20039;-80
2022/04/20 11:59:58;;;;;;;5.88;1.38;;;;;;;14.68;53.89;101723.09;5060319;28;20044;-78
2022/04/20 12:02:24;;;;;;;4.28;1.20;;;;;;;14.86;52.64;101724.91;5080174;28;20486;-78
2022/04/20 12:05:07;;;;;;;4.13;1.45;;;;;;;14.71;52.43;101730.75;5091339;28;20098;-78
2022/04/20 12:07:34;;;;;;;2.53;1.30;;;;;;;14.77;53.49;101727.50;5091906;28;20046;-76
2022/04/20 12:10:00;;;;;;;2.83;1.10;;;;;;;15.06;53.83;101734.34;5092715;28;20193;-77
2022/04/20 12:12:25;;;;;;;2.47;1.20;;;;;;;15.19;51.65;101729.50;5085796;28;20603;-79
2022/04/20 12:14:52;;;;;;;1.25;1.15;;;;;;;14.68;52.84;101736.31;5073257;28;20414;-78